Time;durP1;ratioP1;P1;durP2;ratioP2;P2;SDS_P1;SDS_P2;PMS_P1;PMS_P2;Temp;Humidity;BMP_temperature;BMP_pressure;BME280_temperature;BME280_humidity;BME280_pressure;Samples;Min_cycle;Max_cycle;Signal;HPM_P1;HPM_P2
2023/04/12 00:08:50;;;;;;;17.60;10.80;;;;;;;13.16;77.50;99672.25;681445;1263;141719;-84
2023/04/12 00:23:53;;;;;;;17.90;10.80;;;;;;;12.91;78.33;99652.83;681432;1264;139854;-86
2023/04/12 00:38:57;;;;;;;112.30;50.20;;;;;;;12.70;78.81;99663.58;681106;1265;138635;-85
2023/04/12 00:54:01;;;;;;;21.20;12.70;;;;;;;12.45;79.42;99660.39;681667;1264;138895;-84
2023/04/12 01:09:11;;;;;;;22.60;12.20;;;;;;;12.62;79.52;99662.30;681526;1267;138714;-83
2023/04/12 01:24:27;;;;;;;25.60;14.40;;;;;;;12.81;79.02;99676.35;681641;1269;138777;-84
2023/04/12 01:39:32;;;;;;;16.30;9.30;;;;;;;12.91;78.43;99676.75;681447;1268;138679;-85
2023/04/12 01:54:41;;;;;;;17.50;10.50;;;;;;;12.98;77.84;99675.80;681490;1268;138921;-85
2023/04/12 02:09:44;;;;;;;21.20;12.00;;;;;;;12.99;77.37;99669.71;681493;1264;138735;-84
2023/04/12 02:24:48;;;;;;;17.60;11.30;;;;;;;13.10;77.10;99674.58;681506;1269;137601;-84
2023/04/12 02:39:55;;;;;;;15.90;9.90;;;;;;;13.16;77.55;99667.95;681452;1269;138726;-83
2023/04/12 02:54:59;;;;;;;13.70;8.90;;;;;;;13.18;77.64;99658.10;681614;1266;138558;-83
2023/04/12 03:10:06;;;;;;;21.30;11.20;;;;;;;13.18;77.53;99658.95;681496;1263;140198;-85
2023/04/12 03:25:11;;;;;;;20.70;11.40;;;;;;;13.23;77.88;99640.08;681614;1269;138694;-85
2023/04/12 03:40:19;;;;;;;16.20;9.40;;;;;;;13.19;77.90;99630.95;681665;1263;138616;-84
2023/04/12 03:55:29;;;;;;;16.80;10.40;;;;;;;13.09;78.24;99631.77;681390;1269;139374;-84
2023/04/12 04:10:34;;;;;;;17.20;10.20;;;;;;;12.97;78.65;99647.79;681450;1269;138729;-83
2023/04/12 04:25:38;;;;;;;19.90;12.10;;;;;;;12.81;78.83;99656.79;681401;1268;138781;-85
2023/04/12 04:40:43;;;;;;;21.20;11.20;;;;;;;12.85;78.79;99665.34;681483;1267;138853;-84
2023/04/12 04:55:46;;;;;;;15.70;10.10;;;;;;;12.85;78.72;99672.48;681351;1267;139700;-84
2023/04/12 05:10:52;;;;;;;18.70;12.10;;;;;;;12.60;78.98;99688.48;681613;1269;138553;-85
2023/04/12 05:25:56;;;;;;;18.10;11.80;;;;;;;12.59;79.45;99692.80;681479;1269;138728;-84
2023/04/12 05:41:03;;;;;;;14.40;9.80;;;;;;;12.69;78.95;99700.50;681522;1267;139357;-83
2023/04/12 05:56:07;;;;;;;16.20;10.10;;;;;;;12.77;78.81;99698.73;681505;1268;139322;-83
2023/04/12 06:11:11;;;;;;;14.80;9.90;;;;;;;13.10;78.21;99697.67;681515;1264;139616;-83
2023/04/12 06:26:16;;;;;;;27.00;14.20;;;;;;;13.52;77.57;99694.46;681581;1267;138580;-84
2023/04/12 06:41:21;;;;;;;27.10;16.20;;;;;;;14.10;77.02;99695.45;681588;1264;140298;-85
2023/04/12 06:56:36;;;;;;;24.60;16.30;;;;;;;14.58;76.42;99686.69;681493;1267;139299;-83
2023/04/12 07:11:39;;;;;;;32.60;18.50;;;;;;;14.76;75.36;99679.52;681693;1264;138693;-83
2023/04/12 07:26:42;;;;;;;24.20;16.50;;;;;;;14.65;74.32;99670.74;681476;1267;139213;-83
2023/04/12 07:41:47;;;;;;;28.50;18.40;;;;;;;14.77;73.78;99674.52;681533;1267;138845;-83
2023/04/12 07:56:58;;;;;;;34.20;20.60;;;;;;;14.94;73.35;99669.44;681426;1266;139174;-83
2023/04/12 08:12:02;;;;;;;28.30;18.50;;;;;;;15.04;72.82;99670.83;681585;1267;139142;-83
2023/04/12 08:27:05;;;;;;;32.00;21.00;;;;;;;14.69;73.12;99678.23;681510;1263;138923;-85
2023/04/12 08:42:09;;;;;;;31.20;18.40;;;;;;;14.74;73.09;99671.69;681559;1264;140296;-85
2023/04/12 08:57:13;;;;;;;33.40;19.20;;;;;;;14.59;73.13;99675.33;681335;1271;138924;-84
2023/04/12 09:12:19;;;;;;;33.00;19.40;;;;;;;14.77;72.89;99669.16;681506;1267;139298;-84
2023/04/12 09:27:24;;;;;;;25.50;15.50;;;;;;;14.72;73.24;99660.76;681363;1267;139071;-85
2023/04/12 09:42:27;;;;;;;24.60;16.30;;;;;;;14.40;74.03;99667.73;681523;1267;138863;-84
2023/04/12 09:57:39;;;;;;;23.70;16.90;;;;;;;14.55;74.03;99666.78;681530;1267;139105;-86
2023/04/12 10:12:45;;;;;;;25.70;16.40;;;;;;;14.70;73.57;99658.59;681619;1264;138920;-85
2023/04/12 10:27:49;;;;;;;24.10;15.20;;;;;;;14.93;72.77;99656.07;681532;1269;139586;-85
2023/04/12 10:43:22;;;;;;;29.80;18.10;;;;;;;15.61;71.58;99648.08;681488;1268;139226;-88
2023/04/12 10:58:47;;;;;;;17.70;12.80;;;;;;;16.18;69.56;99648.25;681587;1276;139536;-85
2023/04/12 11:13:55;;;;;;;22.80;12.70;;;;;;;16.15;67.73;99647.01;681494;1266;138919;-85
2023/04/12 11:29:06;;;;;;;14.00;10.90;;;;;;;16.96;65.64;99641.27;681697;1266;139839;-83
2023/04/12 11:44:10;;;;;;;28.90;14.20;;;;;;;17.07;63.63;99633.38;681505;1266;139750;-86
2023/04/12 11:59:13;;;;;;;20.00;11.70;;;;;;;17.72;63.19;99624.07;681634;1268;138834;-85
2023/04/12 12:14:18;;;;;;;15.80;11.10;;;;;;;18.59;61.05;99605.59;681433;1266;139087;-84
2023/04/12 12:29:23;;;;;;;14.50;10.90;;;;;;;18.33;60.25;99579.55;681708;1264;138482;-86
2023/04/12 12:44:27;;;;;;;15.20;10.50;;;;;;;17.52;60.32;99576.69;681663;1267;138495;-84
2023/04/12 12:59:30;;;;;;;14.60;10.80;;;;;;;18.67;60.26;99556.63;681581;1266;138006;-84
2023/04/12 13:14:34;;;;;;;16.80;11.10;;;;;;;20.01;58.09;99539.70;681678;1267;138506;-84
2023/04/12 13:29:37;;;;;;;16.90;10.00;;;;;;;18.50;57.42;99528.09;681629;1267;138094;-85
2023/04/12 13:44:42;;;;;;;14.90;9.20;;;;;;;18.74;57.23;99519.98;681554;1267;138231;-75
2023/04/12 13:59:45;;;;;;;13.10;8.20;;;;;;;19.10;55.72;99506.47;681783;1267;138015;-79
2023/04/12 14:14:48;;;;;;;112.60;62.80;;;;;;;21.94;52.33;99497.89;681697;1263;138588;-79
2023/04/12 14:29:52;;;;;;;9.00;7.60;;;;;;;27.45;44.87;99501.61;681590;1263;138481;-80
2023/04/12 14:44:56;;;;;;;9.10;7.00;;;;;;;21.84;47.23;99501.48;681561;1263;138073;-81
2023/04/12 15:00:00;;;;;;;10.20;6.40;;;;;;;21.78;48.53;99501.59;681738;1268;138003;-80
2023/04/12 15:15:03;;;;;;;33.00;20.70;;;;;;;19.11;51.12;99499.31;681555;1263;137929;-80
2023/04/12 15:30:11;;;;;;;12.70;8.10;;;;;;;20.53;50.40;99504.98;681653;1267;139368;-81
2023/04/12 15:45:14;;;;;;;10.00;7.50;;;;;;;18.34;52.60;99505.86;681665;1269;138778;-80
2023/04/12 16:00:21;;;;;;;10.90;8.00;;;;;;;17.37;54.63;99500.57;681742;1267;138129;-79
2023/04/12 16:15:25;;;;;;;15.10;8.70;;;;;;;16.89;56.00;99489.90;681465;1263;138079;-81
2023/04/12 16:30:30;;;;;;;14.50;7.40;;;;;;;16.65;56.91;99486.05;681762;1267;138099;-80
2023/04/12 16:45:34;;;;;;;12.00;8.10;;;;;;;16.45;57.69;99480.42;681516;1268;138484;-81
2023/04/12 17:00:39;;;;;;;20.70;14.50;;;;;;;16.39;58.13;99477.62;681408;1269;138336;-80
2023/04/12 17:15:46;;;;;;;47.30;24.60;;;;;;;16.30;58.75;99479.63;681132;1263;138463;-80
2023/04/12 17:30:50;;;;;;;111.90;62.00;;;;;;;16.18;59.61;99486.05;681500;1268;138377;-80
2023/04/12 17:45:54;;;;;;;75.80;68.00;;;;;;;16.02;60.65;99486.29;681451;1269;138442;-87
2023/04/12 18:00:58;;;;;;;28.30;18.70;;;;;;;15.78;61.83;99480.56;681618;1267;138595;-81
2023/04/12 18:16:02;;;;;;;59.00;28.20;;;;;;;15.72;62.10;99484.64;681224;1268;155069;-81
2023/04/12 18:31:08;;;;;;;82.60;37.20;;;;;;;15.59;62.17;99486.08;681488;1268;138872;-80
2023/04/12 18:46:16;;;;;;;85.90;39.00;;;;;;;15.16;62.98;99478.92;681387;1269;139021;-81
2023/04/12 19:01:21;;;;;;;60.90;32.20;;;;;;;14.56;63.90;99459.92;681447;1266;139797;-81
2023/04/12 19:16:28;;;;;;;110.70;49.50;;;;;;;14.23;64.19;99456.55;681477;1263;139016;-81
2023/04/12 19:31:33;;;;;;;94.00;51.60;;;;;;;13.97;64.58;99459.04;681400;1267;138980;-83
2023/04/12 19:46:38;;;;;;;94.80;41.40;;;;;;;13.54;65.49;99464.78;681455;1269;138983;-80
2023/04/12 20:01:49;;;;;;;83.40;37.30;;;;;;;12.77;66.60;99465.38;681162;1269;139659;-77
2023/04/12 20:16:56;;;;;;;74.30;36.60;;;;;;;12.66;67.56;99464.35;681238;1268;138610;-81
2023/04/12 20:32:01;;;;;;;92.70;46.10;;;;;;;12.65;68.09;99470.05;681012;1268;139235;-79
2023/04/12 20:47:06;;;;;;;322.20;121.60;;;;;;;12.44;68.81;99468.33;681332;1269;138936;-81
2023/04/12 21:02:10;;;;;;;264.50;105.20;;;;;;;12.18;69.12;99466.40;680900;1266;139056;-83
2023/04/12 21:17:13;;;;;;;184.90;75.80;;;;;;;11.84;69.43;99456.06;681103;1268;139445;-80
2023/04/12 21:32:17;;;;;;;107.70;47.80;;;;;;;11.59;69.59;99451.77;681234;1277;139509;-80
2023/04/12 21:47:21;;;;;;;94.10;41.40;;;;;;;11.34;69.84;99445.23;681272;1269;139633;-83
2023/04/12 22:02:26;;;;;;;230.90;86.10;;;;;;;11.12;69.65;99446.63;681436;1270;139530;-81
2023/04/12 22:17:30;;;;;;;96.00;43.70;;;;;;;10.93;70.69;99443.73;681513;1267;138993;-80
2023/04/12 22:32:33;;;;;;;133.30;60.40;;;;;;;10.74;71.38;99441.94;681475;1269;138779;-79
2023/04/12 22:47:36;;;;;;;126.90;57.80;;;;;;;10.63;71.28;99425.60;681455;1267;139038;-82
2023/04/12 23:02:40;;;;;;;142.70;64.80;;;;;;;10.54;70.36;99408.31;681396;1269;139086;-80
2023/04/12 23:17:43;;;;;;;93.00;45.60;;;;;;;10.29;70.97;99374.96;681502;1267;139580;-81
2023/04/12 23:32:46;;;;;;;72.20;38.60;;;;;;;10.26;71.66;99355.70;681477;1269;138925;-81
2023/04/12 23:47:50;;;;;;;75.10;38.00;;;;;;;10.28;72.48;99347.91;681415;1270;139104;-81
